sensor_id;sensor_type;location;lat;lon;timestamp;P1;durP1;ratioP1;P2;durP2;ratioP2
65275;SDS011;51875;49.994;14.052;2023-05-25T00:00:43;8.60;;;4.32;;
65275;SDS011;51875;49.994;14.052;2023-05-25T00:02:18;10.77;;;4.50;;
65275;SDS011;51875;49.994;14.052;2023-05-25T00:03:34;10.90;;;5.82;;
65275;SDS011;51875;49.994;14.052;2023-05-25T00:04:50;11.75;;;4.63;;
65275;SDS011;51875;49.994;14.052;2023-05-25T00:06:06;11.02;;;4.15;;
65275;SDS011;51875;49.994;14.052;2023-05-25T00:07:22;11.85;;;4.68;;
65275;SDS011;51875;49.994;14.052;2023-05-25T00:08:38;11.82;;;4.72;;
65275;SDS011;51875;49.994;14.052;2023-05-25T00:09:54;9.75;;;4.53;;
65275;SDS011;51875;49.994;14.052;2023-05-25T00:11:10;11.80;;;4.40;;
65275;SDS011;51875;49.994;14.052;2023-05-25T00:12:26;13.80;;;5.10;;
65275;SDS011;51875;49.994;14.052;2023-05-25T00:13:42;14.02;;;4.80;;
65275;SDS011;51875;49.994;14.052;2023-05-25T00:14:57;10.70;;;4.82;;
65275;SDS011;51875;49.994;14.052;2023-05-25T00:16:13;11.82;;;4.32;;
65275;SDS011;51875;49.994;14.052;2023-05-25T00:17:29;9.70;;;4.15;;
65275;SDS011;51875;49.994;14.052;2023-05-25T00:18:46;11.52;;;4.38;;
65275;SDS011;51875;49.994;14.052;2023-05-25T00:20:02;11.45;;;5.07;;
65275;SDS011;51875;49.994;14.052;2023-05-25T00:21:22;9.00;;;4.65;;
65275;SDS011;51875;49.994;14.052;2023-05-25T00:22:41;9.65;;;4.65;;
65275;SDS011;51875;49.994;14.052;2023-05-25T00:23:59;11.98;;;4.82;;
65275;SDS011;51875;49.994;14.052;2023-05-25T00:25:15;10.88;;;4.50;;
65275;SDS011;51875;49.994;14.052;2023-05-25T00:26:30;9.15;;;4.55;;
65275;SDS011;51875;49.994;14.052;2023-05-25T00:27:46;13.07;;;4.72;;
65275;SDS011;51875;49.994;14.052;2023-05-25T00:29:02;11.82;;;4.43;;
65275;SDS011;51875;49.994;14.052;2023-05-25T00:30:18;10.90;;;4.50;;
65275;SDS011;51875;49.994;14.052;2023-05-25T00:31:33;9.90;;;4.50;;
65275;SDS011;51875;49.994;14.052;2023-05-25T00:32:50;10.40;;;4.60;;
65275;SDS011;51875;49.994;14.052;2023-05-25T00:34:08;12.25;;;4.22;;
65275;SDS011;51875;49.994;14.052;2023-05-25T00:35:23;10.75;;;4.43;;
65275;SDS011;51875;49.994;14.052;2023-05-25T00:36:39;11.75;;;4.95;;
65275;SDS011;51875;49.994;14.052;2023-05-25T00:37:55;11.77;;;4.93;;
65275;SDS011;51875;49.994;14.052;2023-05-25T00:39:12;11.82;;;4.32;;
65275;SDS011;51875;49.994;14.052;2023-05-25T00:40:32;11.02;;;4.93;;
65275;SDS011;51875;49.994;14.052;2023-05-25T00:41:49;13.55;;;5.10;;
65275;SDS011;51875;49.994;14.052;2023-05-25T00:43:06;10.40;;;4.45;;
65275;SDS011;51875;49.994;14.052;2023-05-25T00:44:23;9.38;;;4.43;;
65275;SDS011;51875;49.994;14.052;2023-05-25T00:45:38;8.20;;;4.50;;
65275;SDS011;51875;49.994;14.052;2023-05-25T00:46:54;8.68;;;4.28;;
65275;SDS011;51875;49.994;14.052;2023-05-25T00:48:10;13.63;;;5.40;;
65275;SDS011;51875;49.994;14.052;2023-05-25T00:49:26;8.30;;;4.47;;
65275;SDS011;51875;49.994;14.052;2023-05-25T00:50:44;7.88;;;4.00;;
65275;SDS011;51875;49.994;14.052;2023-05-25T00:52:00;7.75;;;3.80;;
65275;SDS011;51875;49.994;14.052;2023-05-25T00:53:17;10.43;;;4.65;;
65275;SDS011;51875;49.994;14.052;2023-05-25T00:54:32;9.18;;;4.93;;
65275;SDS011;51875;49.994;14.052;2023-05-25T00:55:52;13.30;;;4.63;;
65275;SDS011;51875;49.994;14.052;2023-05-25T00:57:14;14.18;;;5.45;;
65275;SDS011;51875;49.994;14.052;2023-05-25T00:58:32;13.88;;;4.88;;
65275;SDS011;51875;49.994;14.052;2023-05-25T00:59:49;8.52;;;4.80;;
65275;SDS011;51875;49.994;14.052;2023-05-25T01:01:08;10.32;;;4.57;;
65275;SDS011;51875;49.994;14.052;2023-05-25T01:02:26;12.35;;;4.82;;
65275;SDS011;51875;49.994;14.052;2023-05-25T01:03:45;11.23;;;4.85;;
65275;SDS011;51875;49.994;14.052;2023-05-25T01:05:07;9.60;;;4.57;;
65275;SDS011;51875;49.994;14.052;2023-05-25T01:06:24;9.60;;;4.68;;
65275;SDS011;51875;49.994;14.052;2023-05-25T01:07:44;11.88;;;5.10;;
65275;SDS011;51875;49.994;14.052;2023-05-25T01:09:03;9.73;;;5.32;;
65275;SDS011;51875;49.994;14.052;2023-05-25T01:10:19;10.18;;;4.85;;
65275;SDS011;51875;49.994;14.052;2023-05-25T01:11:38;9.32;;;4.72;;
65275;SDS011;51875;49.994;14.052;2023-05-25T01:12:56;9.60;;;4.50;;
65275;SDS011;51875;49.994;14.052;2023-05-25T01:14:14;10.60;;;4.50;;
65275;SDS011;51875;49.994;14.052;2023-05-25T01:15:33;15.00;;;4.75;;
65275;SDS011;51875;49.994;14.052;2023-05-25T01:16:49;16.45;;;5.03;;
65275;SDS011;51875;49.994;14.052;2023-05-25T01:18:06;11.20;;;5.10;;
65275;SDS011;51875;49.994;14.052;2023-05-25T01:19:23;9.05;;;4.57;;
65275;SDS011;51875;49.994;14.052;2023-05-25T01:22:34;10.10;;;4.82;;
65275;SDS011;51875;49.994;14.052;2023-05-25T01:24:00;10.65;;;5.15;;
65275;SDS011;51875;49.994;14.052;2023-05-25T01:25:44;13.07;;;4.07;;
65275;SDS011;51875;49.994;14.052;2023-05-25T01:28:29;11.05;;;4.97;;
65275;SDS011;51875;49.994;14.052;2023-05-25T01:29:49;11.77;;;5.03;;
65275;SDS011;51875;49.994;14.052;2023-05-25T01:31:06;8.98;;;4.65;;
65275;SDS011;51875;49.994;14.052;2023-05-25T01:32:23;10.75;;;5.45;;
65275;SDS011;51875;49.994;14.052;2023-05-25T01:33:41;12.90;;;4.90;;
65275;SDS011;51875;49.994;14.052;2023-05-25T01:34:58;10.20;;;5.05;;
65275;SDS011;51875;49.994;14.052;2023-05-25T01:36:15;10.55;;;5.00;;
65275;SDS011;51875;49.994;14.052;2023-05-25T01:37:31;9.32;;;4.93;;
65275;SDS011;51875;49.994;14.052;2023-05-25T01:38:51;10.40;;;4.72;;
65275;SDS011;51875;49.994;14.052;2023-05-25T01:40:07;9.85;;;4.97;;
65275;SDS011;51875;49.994;14.052;2023-05-25T01:41:23;8.20;;;4.53;;
65275;SDS011;51875;49.994;14.052;2023-05-25T01:42:39;10.23;;;5.13;;
65275;SDS011;51875;49.994;14.052;2023-05-25T01:43:55;12.73;;;4.70;;
65275;SDS011;51875;49.994;14.052;2023-05-25T01:45:10;13.60;;;4.88;;
65275;SDS011;51875;49.994;14.052;2023-05-25T01:46:32;9.90;;;4.10;;
65275;SDS011;51875;49.994;14.052;2023-05-25T01:47:55;9.57;;;4.70;;
65275;SDS011;51875;49.994;14.052;2023-05-25T01:49:28;8.48;;;4.97;;
65275;SDS011;51875;49.994;14.052;2023-05-25T01:50:50;11.18;;;5.35;;
65275;SDS011;51875;49.994;14.052;2023-05-25T01:53:34;11.73;;;5.00;;
65275;SDS011;51875;49.994;14.052;2023-05-25T01:54:56;9.90;;;5.53;;
65275;SDS011;51875;49.994;14.052;2023-05-25T01:56:18;9.45;;;4.60;;
65275;SDS011;51875;49.994;14.052;2023-05-25T01:57:36;8.68;;;4.32;;
65275;SDS011;51875;49.994;14.052;2023-05-25T01:58:55;14.02;;;5.13;;
65275;SDS011;51875;49.994;14.052;2023-05-25T02:00:13;9.55;;;5.00;;
65275;SDS011;51875;49.994;14.052;2023-05-25T02:01:30;13.65;;;5.03;;
65275;SDS011;51875;49.994;14.052;2023-05-25T02:02:47;9.98;;;4.75;;
65275;SDS011;51875;49.994;14.052;2023-05-25T02:04:05;10.05;;;5.38;;
65275;SDS011;51875;49.994;14.052;2023-05-25T02:05:20;11.20;;;5.43;;
65275;SDS011;51875;49.994;14.052;2023-05-25T02:06:36;10.07;;;4.50;;
65275;SDS011;51875;49.994;14.052;2023-05-25T02:07:52;11.68;;;4.95;;
65275;SDS011;51875;49.994;14.052;2023-05-25T02:09:08;9.70;;;5.00;;
65275;SDS011;51875;49.994;14.052;2023-05-25T02:10:23;8.23;;;4.35;;
65275;SDS011;51875;49.994;14.052;2023-05-25T02:11:39;11.80;;;4.97;;
65275;SDS011;51875;49.994;14.052;2023-05-25T02:12:55;10.50;;;4.82;;
65275;SDS011;51875;49.994;14.052;2023-05-25T02:14:10;13.23;;;5.10;;
65275;SDS011;51875;49.994;14.052;2023-05-25T02:15:30;12.20;;;4.93;;
65275;SDS011;51875;49.994;14.052;2023-05-25T02:16:46;10.70;;;4.72;;
65275;SDS011;51875;49.994;14.052;2023-05-25T02:18:02;9.70;;;3.85;;
65275;SDS011;51875;49.994;14.052;2023-05-25T02:19:21;7.72;;;4.47;;
65275;SDS011;51875;49.994;14.052;2023-05-25T02:20:36;11.90;;;4.95;;
65275;SDS011;51875;49.994;14.052;2023-05-25T02:21:52;9.20;;;5.18;;
65275;SDS011;51875;49.994;14.052;2023-05-25T02:23:07;9.30;;;4.55;;
65275;SDS011;51875;49.994;14.052;2023-05-25T02:24:23;10.70;;;4.57;;
65275;SDS011;51875;49.994;14.052;2023-05-25T02:25:39;8.48;;;4.53;;
65275;SDS011;51875;49.994;14.052;2023-05-25T02:26:56;9.63;;;4.53;;
65275;SDS011;51875;49.994;14.052;2023-05-25T02:29:28;10.55;;;5.18;;
65275;SDS011;51875;49.994;14.052;2023-05-25T02:30:44;13.48;;;5.07;;
65275;SDS011;51875;49.994;14.052;2023-05-25T02:32:00;15.52;;;4.72;;
65275;SDS011;51875;49.994;14.052;2023-05-25T02:33:15;9.63;;;4.90;;
65275;SDS011;51875;49.994;14.052;2023-05-25T02:34:31;13.77;;;5.25;;
65275;SDS011;51875;49.994;14.052;2023-05-25T02:35:47;12.75;;;5.55;;
65275;SDS011;51875;49.994;14.052;2023-05-25T02:37:03;11.23;;;5.28;;
65275;SDS011;51875;49.994;14.052;2023-05-25T02:38:19;9.75;;;4.55;;
65275;SDS011;51875;49.994;14.052;2023-05-25T02:39:34;11.63;;;5.20;;
65275;SDS011;51875;49.994;14.052;2023-05-25T02:40:50;9.07;;;4.45;;
65275;SDS011;51875;49.994;14.052;2023-05-25T02:42:06;8.55;;;4.53;;
65275;SDS011;51875;49.994;14.052;2023-05-25T02:43:22;6.07;;;4.18;;
65275;SDS011;51875;49.994;14.052;2023-05-25T02:44:37;9.63;;;5.40;;
65275;SDS011;51875;49.994;14.052;2023-05-25T02:45:54;8.30;;;4.95;;
65275;SDS011;51875;49.994;14.052;2023-05-25T02:47:09;13.52;;;5.05;;
65275;SDS011;51875;49.994;14.052;2023-05-25T02:48:25;8.38;;;4.50;;
65275;SDS011;51875;49.994;14.052;2023-05-25T02:49:40;10.95;;;5.38;;
65275;SDS011;51875;49.994;14.052;2023-05-25T02:50:56;15.43;;;5.43;;
65275;SDS011;51875;49.994;14.052;2023-05-25T02:52:11;12.32;;;5.20;;
65275;SDS011;51875;49.994;14.052;2023-05-25T02:53:27;12.63;;;4.50;;
65275;SDS011;51875;49.994;14.052;2023-05-25T02:54:43;12.40;;;5.80;;
65275;SDS011;51875;49.994;14.052;2023-05-25T02:55:58;12.23;;;4.93;;
65275;SDS011;51875;49.994;14.052;2023-05-25T02:57:16;8.18;;;4.78;;
65275;SDS011;51875;49.994;14.052;2023-05-25T02:58:31;11.27;;;4.70;;
65275;SDS011;51875;49.994;14.052;2023-05-25T02:59:47;15.88;;;5.15;;
65275;SDS011;51875;49.994;14.052;2023-05-25T03:01:04;10.27;;;5.15;;
65275;SDS011;51875;49.994;14.052;2023-05-25T03:02:20;11.15;;;5.53;;
65275;SDS011;51875;49.994;14.052;2023-05-25T03:03:39;11.02;;;5.15;;
65275;SDS011;51875;49.994;14.052;2023-05-25T03:04:55;12.70;;;4.82;;
65275;SDS011;51875;49.994;14.052;2023-05-25T03:06:10;9.18;;;4.95;;
65275;SDS011;51875;49.994;14.052;2023-05-25T03:07:27;9.40;;;4.70;;
65275;SDS011;51875;49.994;14.052;2023-05-25T03:08:42;10.65;;;5.45;;
65275;SDS011;51875;49.994;14.052;2023-05-25T03:09:58;10.57;;;4.50;;
65275;SDS011;51875;49.994;14.052;2023-05-25T03:11:14;8.60;;;5.10;;
65275;SDS011;51875;49.994;14.052;2023-05-25T03:12:29;9.50;;;4.75;;
65275;SDS011;51875;49.994;14.052;2023-05-25T03:13:45;11.52;;;5.10;;
65275;SDS011;51875;49.994;14.052;2023-05-25T03:15:00;9.23;;;4.72;;
65275;SDS011;51875;49.994;14.052;2023-05-25T03:16:16;10.15;;;4.93;;
65275;SDS011;51875;49.994;14.052;2023-05-25T03:17:32;9.48;;;4.93;;
65275;SDS011;51875;49.994;14.052;2023-05-25T03:18:47;10.48;;;4.75;;
65275;SDS011;51875;49.994;14.052;2023-05-25T03:20:03;8.27;;;4.43;;
65275;SDS011;51875;49.994;14.052;2023-05-25T03:21:20;12.20;;;5.53;;
65275;SDS011;51875;49.994;14.052;2023-05-25T03:22:36;7.78;;;4.55;;
65275;SDS011;51875;49.994;14.052;2023-05-25T03:23:52;11.23;;;4.80;;
65275;SDS011;51875;49.994;14.052;2023-05-25T03:25:08;8.30;;;4.53;;
65275;SDS011;51875;49.994;14.052;2023-05-25T03:26:26;11.00;;;4.57;;
65275;SDS011;51875;49.994;14.052;2023-05-25T03:27:43;11.35;;;4.72;;
65275;SDS011;51875;49.994;14.052;2023-05-25T03:28:58;6.95;;;4.47;;
65275;SDS011;51875;49.994;14.052;2023-05-25T03:30:14;14.32;;;6.25;;
65275;SDS011;51875;49.994;14.052;2023-05-25T03:31:29;12.38;;;5.85;;
65275;SDS011;51875;49.994;14.052;2023-05-25T03:32:45;8.70;;;4.70;;
65275;SDS011;51875;49.994;14.052;2023-05-25T03:34:01;11.32;;;5.20;;
65275;SDS011;51875;49.994;14.052;2023-05-25T03:35:17;11.23;;;5.10;;
65275;SDS011;51875;49.994;14.052;2023-05-25T03:36:33;10.85;;;5.13;;
65275;SDS011;51875;49.994;14.052;2023-05-25T03:37:48;12.15;;;5.30;;
65275;SDS011;51875;49.994;14.052;2023-05-25T03:39:05;9.50;;;4.63;;
65275;SDS011;51875;49.994;14.052;2023-05-25T03:40:21;8.70;;;4.88;;
65275;SDS011;51875;49.994;14.052;2023-05-25T03:41:36;8.95;;;5.00;;
65275;SDS011;51875;49.994;14.052;2023-05-25T03:42:52;12.55;;;5.28;;
65275;SDS011;51875;49.994;14.052;2023-05-25T03:44:07;10.88;;;4.85;;
65275;SDS011;51875;49.994;14.052;2023-05-25T03:45:24;13.25;;;5.25;;
65275;SDS011;51875;49.994;14.052;2023-05-25T03:46:40;9.65;;;4.97;;
65275;SDS011;51875;49.994;14.052;2023-05-25T03:47:55;11.82;;;5.43;;
65275;SDS011;51875;49.994;14.052;2023-05-25T03:49:11;17.88;;;5.50;;
65275;SDS011;51875;49.994;14.052;2023-05-25T03:50:28;11.68;;;5.63;;
65275;SDS011;51875;49.994;14.052;2023-05-25T03:51:43;10.00;;;5.05;;
65275;SDS011;51875;49.994;14.052;2023-05-25T03:52:59;10.63;;;5.05;;
65275;SDS011;51875;49.994;14.052;2023-05-25T03:54:15;17.73;;;5.70;;
65275;SDS011;51875;49.994;14.052;2023-05-25T03:55:30;10.63;;;5.18;;
65275;SDS011;51875;49.994;14.052;2023-05-25T03:56:46;9.35;;;5.75;;
65275;SDS011;51875;49.994;14.052;2023-05-25T03:58:02;13.35;;;5.55;;
65275;SDS011;51875;49.994;14.052;2023-05-25T03:59:17;10.25;;;4.88;;
65275;SDS011;51875;49.994;14.052;2023-05-25T04:00:33;10.43;;;4.50;;
65275;SDS011;51875;49.994;14.052;2023-05-25T04:01:49;10.80;;;5.20;;
65275;SDS011;51875;49.994;14.052;2023-05-25T04:03:04;11.07;;;5.57;;
65275;SDS011;51875;49.994;14.052;2023-05-25T04:04:20;13.25;;;5.10;;
65275;SDS011;51875;49.994;14.052;2023-05-25T04:05:36;10.95;;;5.80;;
65275;SDS011;51875;49.994;14.052;2023-05-25T04:06:52;10.75;;;5.43;;
65275;SDS011;51875;49.994;14.052;2023-05-25T04:08:08;11.30;;;5.05;;
65275;SDS011;51875;49.994;14.052;2023-05-25T04:09:25;15.90;;;5.47;;
65275;SDS011;51875;49.994;14.052;2023-05-25T04:10:40;11.40;;;5.22;;
65275;SDS011;51875;49.994;14.052;2023-05-25T04:11:55;10.77;;;5.20;;
65275;SDS011;51875;49.994;14.052;2023-05-25T04:13:11;10.57;;;5.05;;
65275;SDS011;51875;49.994;14.052;2023-05-25T04:14:27;12.57;;;5.45;;
65275;SDS011;51875;49.994;14.052;2023-05-25T04:15:43;9.73;;;5.15;;
65275;SDS011;51875;49.994;14.052;2023-05-25T04:16:58;13.32;;;5.53;;
65275;SDS011;51875;49.994;14.052;2023-05-25T04:18:14;12.07;;;5.10;;
65275;SDS011;51875;49.994;14.052;2023-05-25T04:19:30;10.70;;;5.40;;
65275;SDS011;51875;49.994;14.052;2023-05-25T04:20:45;8.40;;;4.97;;
65275;SDS011;51875;49.994;14.052;2023-05-25T04:22:01;11.43;;;5.07;;
65275;SDS011;51875;49.994;14.052;2023-05-25T04:23:17;11.10;;;5.45;;
65275;SDS011;51875;49.994;14.052;2023-05-25T04:24:33;11.27;;;5.28;;
65275;SDS011;51875;49.994;14.052;2023-05-25T04:25:49;10.38;;;5.93;;
65275;SDS011;51875;49.994;14.052;2023-05-25T04:27:08;15.80;;;5.78;;
65275;SDS011;51875;49.994;14.052;2023-05-25T04:28:24;10.00;;;5.18;;
65275;SDS011;51875;49.994;14.052;2023-05-25T04:29:40;14.88;;;5.38;;
65275;SDS011;51875;49.994;14.052;2023-05-25T04:30:55;9.73;;;4.97;;
65275;SDS011;51875;49.994;14.052;2023-05-25T04:32:11;11.07;;;6.05;;
65275;SDS011;51875;49.994;14.052;2023-05-25T04:33:32;10.35;;;5.97;;
65275;SDS011;51875;49.994;14.052;2023-05-25T04:34:48;15.40;;;5.85;;
65275;SDS011;51875;49.994;14.052;2023-05-25T04:36:04;13.65;;;6.00;;
65275;SDS011;51875;49.994;14.052;2023-05-25T04:37:19;13.50;;;5.57;;
65275;SDS011;51875;49.994;14.052;2023-05-25T04:38:35;11.48;;;5.30;;
65275;SDS011;51875;49.994;14.052;2023-05-25T04:39:51;10.45;;;5.32;;
65275;SDS011;51875;49.994;14.052;2023-05-25T04:41:07;14.00;;;5.75;;
65275;SDS011;51875;49.994;14.052;2023-05-25T04:42:23;19.48;;;6.32;;
65275;SDS011;51875;49.994;14.052;2023-05-25T04:43:39;10.82;;;5.43;;
65275;SDS011;51875;49.994;14.052;2023-05-25T04:44:54;12.95;;;5.30;;
65275;SDS011;51875;49.994;14.052;2023-05-25T04:46:10;13.68;;;5.65;;
65275;SDS011;51875;49.994;14.052;2023-05-25T04:47:28;13.88;;;5.93;;
65275;SDS011;51875;49.994;14.052;2023-05-25T04:48:45;14.50;;;5.80;;
65275;SDS011;51875;49.994;14.052;2023-05-25T04:50:00;11.55;;;5.78;;
65275;SDS011;51875;49.994;14.052;2023-05-25T04:51:17;14.75;;;5.60;;
65275;SDS011;51875;49.994;14.052;2023-05-25T04:52:32;10.45;;;5.45;;
65275;SDS011;51875;49.994;14.052;2023-05-25T04:53:48;13.50;;;5.78;;
65275;SDS011;51875;49.994;14.052;2023-05-25T04:55:05;12.18;;;6.03;;
65275;SDS011;51875;49.994;14.052;2023-05-25T04:56:21;11.75;;;5.68;;
65275;SDS011;51875;49.994;14.052;2023-05-25T04:57:39;11.55;;;5.85;;
65275;SDS011;51875;49.994;14.052;2023-05-25T04:58:55;13.45;;;6.35;;
65275;SDS011;51875;49.994;14.052;2023-05-25T05:00:11;11.45;;;5.53;;
65275;SDS011;51875;49.994;14.052;2023-05-25T05:01:26;11.18;;;5.15;;
65275;SDS011;51875;49.994;14.052;2023-05-25T05:02:43;13.05;;;5.90;;
65275;SDS011;51875;49.994;14.052;2023-05-25T05:03:58;12.85;;;6.32;;
65275;SDS011;51875;49.994;14.052;2023-05-25T05:05:14;14.63;;;6.40;;
65275;SDS011;51875;49.994;14.052;2023-05-25T05:06:30;11.82;;;5.65;;
65275;SDS011;51875;49.994;14.052;2023-05-25T05:07:46;10.02;;;5.40;;
65275;SDS011;51875;49.994;14.052;2023-05-25T05:09:01;10.85;;;5.30;;
65275;SDS011;51875;49.994;14.052;2023-05-25T05:10:17;18.13;;;7.22;;
65275;SDS011;51875;49.994;14.052;2023-05-25T05:11:33;12.50;;;5.28;;
65275;SDS011;51875;49.994;14.052;2023-05-25T05:12:49;11.35;;;5.72;;
65275;SDS011;51875;49.994;14.052;2023-05-25T05:14:04;12.68;;;5.18;;
65275;SDS011;51875;49.994;14.052;2023-05-25T05:15:20;11.20;;;5.85;;
65275;SDS011;51875;49.994;14.052;2023-05-25T05:16:35;12.05;;;5.55;;
65275;SDS011;51875;49.994;14.052;2023-05-25T05:17:52;10.85;;;5.20;;
65275;SDS011;51875;49.994;14.052;2023-05-25T05:19:07;12.27;;;5.63;;
65275;SDS011;51875;49.994;14.052;2023-05-25T05:20:23;11.57;;;5.30;;
65275;SDS011;51875;49.994;14.052;2023-05-25T05:21:39;14.90;;;4.88;;
65275;SDS011;51875;49.994;14.052;2023-05-25T05:22:54;12.13;;;5.53;;
65275;SDS011;51875;49.994;14.052;2023-05-25T05:24:10;13.07;;;6.10;;
65275;SDS011;51875;49.994;14.052;2023-05-25T05:25:26;9.57;;;5.97;;
65275;SDS011;51875;49.994;14.052;2023-05-25T05:26:41;12.40;;;5.63;;
65275;SDS011;51875;49.994;14.052;2023-05-25T05:27:57;12.15;;;5.00;;
65275;SDS011;51875;49.994;14.052;2023-05-25T05:29:12;10.50;;;5.93;;
65275;SDS011;51875;49.994;14.052;2023-05-25T05:30:28;13.02;;;5.75;;
65275;SDS011;51875;49.994;14.052;2023-05-25T05:31:43;14.02;;;5.72;;
65275;SDS011;51875;49.994;14.052;2023-05-25T05:32:59;12.13;;;6.57;;
65275;SDS011;51875;49.994;14.052;2023-05-25T05:34:15;13.40;;;6.07;;
65275;SDS011;51875;49.994;14.052;2023-05-25T05:35:31;11.38;;;5.63;;
65275;SDS011;51875;49.994;14.052;2023-05-25T05:36:47;13.50;;;6.40;;
65275;SDS011;51875;49.994;14.052;2023-05-25T05:38:02;14.90;;;6.10;;
65275;SDS011;51875;49.994;14.052;2023-05-25T05:39:19;10.45;;;5.63;;
65275;SDS011;51875;49.994;14.052;2023-05-25T05:40:34;13.88;;;6.30;;
65275;SDS011;51875;49.994;14.052;2023-05-25T05:41:50;10.13;;;4.40;;
65275;SDS011;51875;49.994;14.052;2023-05-25T05:43:05;12.60;;;5.70;;
65275;SDS011;51875;49.994;14.052;2023-05-25T05:44:21;13.95;;;4.30;;
65275;SDS011;51875;49.994;14.052;2023-05-25T05:45:38;13.98;;;5.70;;
65275;SDS011;51875;49.994;14.052;2023-05-25T05:46:54;13.55;;;5.38;;
65275;SDS011;51875;49.994;14.052;2023-05-25T05:48:14;12.55;;;4.80;;
65275;SDS011;51875;49.994;14.052;2023-05-25T05:49:30;13.00;;;5.45;;
65275;SDS011;51875;49.994;14.052;2023-05-25T05:50:46;14.50;;;5.85;;
65275;SDS011;51875;49.994;14.052;2023-05-25T05:52:02;8.82;;;4.95;;
65275;SDS011;51875;49.994;14.052;2023-05-25T05:53:18;13.25;;;6.05;;
65275;SDS011;51875;49.994;14.052;2023-05-25T05:54:33;10.77;;;5.00;;
65275;SDS011;51875;49.994;14.052;2023-05-25T05:55:50;11.93;;;5.30;;
65275;SDS011;51875;49.994;14.052;2023-05-25T05:57:08;10.95;;;4.68;;
65275;SDS011;51875;49.994;14.052;2023-05-25T05:58:24;12.48;;;5.55;;
65275;SDS011;51875;49.994;14.052;2023-05-25T05:59:41;15.45;;;5.43;;
65275;SDS011;51875;49.994;14.052;2023-05-25T06:00:56;14.90;;;5.63;;
65275;SDS011;51875;49.994;14.052;2023-05-25T06:02:13;10.55;;;4.95;;
65275;SDS011;51875;49.994;14.052;2023-05-25T06:03:29;16.17;;;5.53;;
65275;SDS011;51875;49.994;14.052;2023-05-25T06:04:45;8.50;;;4.57;;
65275;SDS011;51875;49.994;14.052;2023-05-25T06:06:00;10.30;;;5.22;;
65275;SDS011;51875;49.994;14.052;2023-05-25T06:07:16;13.25;;;5.50;;
65275;SDS011;51875;49.994;14.052;2023-05-25T06:08:31;8.13;;;4.22;;
65275;SDS011;51875;49.994;14.052;2023-05-25T06:09:47;12.38;;;4.82;;
65275;SDS011;51875;49.994;14.052;2023-05-25T06:11:02;14.25;;;5.30;;
65275;SDS011;51875;49.994;14.052;2023-05-25T06:12:18;8.68;;;4.50;;
65275;SDS011;51875;49.994;14.052;2023-05-25T06:13:33;11.00;;;4.88;;
65275;SDS011;51875;49.994;14.052;2023-05-25T06:14:49;11.80;;;4.82;;
65275;SDS011;51875;49.994;14.052;2023-05-25T06:16:06;12.40;;;4.97;;
65275;SDS011;51875;49.994;14.052;2023-05-25T06:17:21;14.23;;;5.13;;
65275;SDS011;51875;49.994;14.052;2023-05-25T06:18:38;11.48;;;5.10;;
65275;SDS011;51875;49.994;14.052;2023-05-25T06:19:53;10.20;;;4.68;;
65275;SDS011;51875;49.994;14.052;2023-05-25T06:21:09;12.27;;;3.67;;
65275;SDS011;51875;49.994;14.052;2023-05-25T06:22:26;6.90;;;3.05;;
65275;SDS011;51875;49.994;14.052;2023-05-25T06:23:42;7.68;;;2.70;;
65275;SDS011;51875;49.994;14.052;2023-05-25T06:24:58;6.35;;;2.70;;
65275;SDS011;51875;49.994;14.052;2023-05-25T06:26:14;9.35;;;3.28;;
65275;SDS011;51875;49.994;14.052;2023-05-25T06:27:29;5.45;;;2.80;;
65275;SDS011;51875;49.994;14.052;2023-05-25T06:28:45;8.18;;;2.55;;
65275;SDS011;51875;49.994;14.052;2023-05-25T06:30:03;4.75;;;1.98;;
65275;SDS011;51875;49.994;14.052;2023-05-25T06:31:18;7.05;;;2.90;;
65275;SDS011;51875;49.994;14.052;2023-05-25T06:32:34;5.20;;;2.25;;
65275;SDS011;51875;49.994;14.052;2023-05-25T06:33:50;5.45;;;2.90;;
65275;SDS011;51875;49.994;14.052;2023-05-25T06:35:05;9.75;;;2.25;;
65275;SDS011;51875;49.994;14.052;2023-05-25T06:36:21;5.60;;;2.35;;
65275;SDS011;51875;49.994;14.052;2023-05-25T06:37:36;4.15;;;2.72;;
65275;SDS011;51875;49.994;14.052;2023-05-25T06:38:52;10.05;;;2.75;;
65275;SDS011;51875;49.994;14.052;2023-05-25T06:40:08;6.35;;;2.15;;
65275;SDS011;51875;49.994;14.052;2023-05-25T06:41:24;11.25;;;2.63;;
65275;SDS011;51875;49.994;14.052;2023-05-25T06:42:40;4.90;;;2.55;;
65275;SDS011;51875;49.994;14.052;2023-05-25T06:43:56;4.90;;;2.13;;
65275;SDS011;51875;49.994;14.052;2023-05-25T06:45:11;7.22;;;2.42;;
65275;SDS011;51875;49.994;14.052;2023-05-25T06:46:27;7.93;;;2.95;;
65275;SDS011;51875;49.994;14.052;2023-05-25T06:47:43;7.28;;;2.42;;
65275;SDS011;51875;49.994;14.052;2023-05-25T06:48:59;6.38;;;2.72;;
65275;SDS011;51875;49.994;14.052;2023-05-25T06:50:15;9.80;;;3.03;;
65275;SDS011;51875;49.994;14.052;2023-05-25T06:51:32;7.05;;;2.50;;
65275;SDS011;51875;49.994;14.052;2023-05-25T06:52:48;8.07;;;2.50;;
65275;SDS011;51875;49.994;14.052;2023-05-25T06:54:03;8.88;;;2.70;;
65275;SDS011;51875;49.994;14.052;2023-05-25T06:55:19;7.80;;;2.55;;
65275;SDS011;51875;49.994;14.052;2023-05-25T06:56:34;6.00;;;2.30;;
65275;SDS011;51875;49.994;14.052;2023-05-25T06:57:50;7.72;;;2.47;;
65275;SDS011;51875;49.994;14.052;2023-05-25T06:59:05;4.65;;;2.75;;
65275;SDS011;51875;49.994;14.052;2023-05-25T07:00:21;8.05;;;2.25;;
65275;SDS011;51875;49.994;14.052;2023-05-25T07:01:37;9.05;;;3.47;;
65275;SDS011;51875;49.994;14.052;2023-05-25T07:02:52;4.53;;;2.10;;
65275;SDS011;51875;49.994;14.052;2023-05-25T07:04:08;8.35;;;3.08;;
65275;SDS011;51875;49.994;14.052;2023-05-25T07:05:23;7.13;;;3.08;;
65275;SDS011;51875;49.994;14.052;2023-05-25T07:06:39;5.05;;;2.70;;
65275;SDS011;51875;49.994;14.052;2023-05-25T07:07:55;6.25;;;2.20;;
65275;SDS011;51875;49.994;14.052;2023-05-25T07:09:10;9.02;;;2.80;;
65275;SDS011;51875;49.994;14.052;2023-05-25T07:10:26;5.57;;;2.22;;
65275;SDS011;51875;49.994;14.052;2023-05-25T07:11:42;7.53;;;2.50;;
65275;SDS011;51875;49.994;14.052;2023-05-25T07:12:57;6.57;;;2.95;;
65275;SDS011;51875;49.994;14.052;2023-05-25T07:14:12;7.43;;;3.17;;
65275;SDS011;51875;49.994;14.052;2023-05-25T07:15:28;6.90;;;2.60;;
65275;SDS011;51875;49.994;14.052;2023-05-25T07:16:44;6.47;;;2.58;;
65275;SDS011;51875;49.994;14.052;2023-05-25T07:17:59;6.93;;;2.58;;
65275;SDS011;51875;49.994;14.052;2023-05-25T07:19:15;4.32;;;2.47;;
65275;SDS011;51875;49.994;14.052;2023-05-25T07:20:30;7.28;;;2.70;;
65275;SDS011;51875;49.994;14.052;2023-05-25T07:21:48;7.18;;;2.70;;
65275;SDS011;51875;49.994;14.052;2023-05-25T07:23:03;8.88;;;2.60;;
65275;SDS011;51875;49.994;14.052;2023-05-25T07:24:19;5.13;;;2.80;;
65275;SDS011;51875;49.994;14.052;2023-05-25T07:25:35;7.88;;;3.38;;
65275;SDS011;51875;49.994;14.052;2023-05-25T07:26:52;7.15;;;2.60;;
65275;SDS011;51875;49.994;14.052;2023-05-25T07:28:07;11.13;;;3.17;;
65275;SDS011;51875;49.994;14.052;2023-05-25T07:29:23;6.88;;;3.10;;
65275;SDS011;51875;49.994;14.052;2023-05-25T07:30:41;8.40;;;3.08;;
65275;SDS011;51875;49.994;14.052;2023-05-25T07:31:56;6.45;;;3.15;;
65275;SDS011;51875;49.994;14.052;2023-05-25T07:33:12;7.60;;;2.70;;
65275;SDS011;51875;49.994;14.052;2023-05-25T07:34:28;9.80;;;3.38;;
65275;SDS011;51875;49.994;14.052;2023-05-25T07:35:43;6.72;;;3.00;;